Bayou Vista, Texas
Current Conditions -  °F | °C
As of 4:52 AM on Thursday 18 Dec 2014 (Local Time) from KGLS Reporting Station
Broken Clouds Broken Clouds  
Wind Chill: 65°   Ceiling: 8000
Heat Index: 65°   Visibility: 10mi
Dew Point: 65°   Wind: 5mph
Humidity: 100%   Direction: 110°ESE
Pressure: 30.04"   Gusts: NA
Location:  29.2947°N, 95.0312°W
Report Text: KGLS 181052Z AUTO 11004KT 10SM SCT065 BKN080 18/18 A3004 RMK AO1 SLP173 T01830183
Loading
Personal Weather Stations






























Interactive Weather Map New forecast layout! Learn more

10-Day Weather Forecast

Advertisements
Track Severe Weather on mobile